createdAt,value
2019-05-23T00:02:11.955Z,8.97
2019-05-23T00:04:50.014Z,11.33
2019-05-23T00:07:40.033Z,12.40
2019-05-23T00:13:59.036Z,9.37
2019-05-23T00:16:48.000Z,11.23
2019-05-23T00:19:36.739Z,8.50
2019-05-23T00:22:25.232Z,10.87
2019-05-23T00:24:55.851Z,11.03
2019-05-23T00:27:44.968Z,9.70
2019-05-23T00:30:40.712Z,9.97
2019-05-23T00:44:54.208Z,9.13
2019-05-23T00:47:42.855Z,9.23
2019-05-23T00:58:54.141Z,9.40
2019-05-23T01:01:42.945Z,10.23
2019-05-23T01:04:31.504Z,9.70
2019-05-23T01:10:48.243Z,9.23
2019-05-23T01:13:37.051Z,8.83
2019-05-23T01:19:34.620Z,11.83
2019-05-23T01:25:52.653Z,10.00
2019-05-23T01:28:41.188Z,11.40
2019-05-23T01:31:13.695Z,8.27
2019-05-23T01:33:43.644Z,8.53
2019-05-23T01:36:13.264Z,7.37
2019-05-23T01:38:42.939Z,8.03
2019-05-23T01:41:12.789Z,8.27
2019-05-23T01:43:42.689Z,8.93
2019-05-23T01:46:13.036Z,7.83
2019-05-23T01:48:42.988Z,8.50
2019-05-23T01:51:14.081Z,8.10
2019-05-23T01:53:43.588Z,8.90
2019-05-23T01:56:13.548Z,7.23
2019-05-23T01:58:43.296Z,8.50
2019-05-23T02:01:13.856Z,6.40
2019-05-23T02:03:43.713Z,9.20
2019-05-23T02:06:13.995Z,7.17
2019-05-23T02:08:43.671Z,8.10
2019-05-23T02:11:13.267Z,7.00
2019-05-23T02:13:44.020Z,7.60
2019-05-23T02:16:13.899Z,8.87
2019-05-23T02:18:45.143Z,10.27
2019-05-23T02:21:16.301Z,8.90
2019-05-23T02:23:45.856Z,9.77
2019-05-23T02:26:16.093Z,8.97
2019-05-23T02:28:46.264Z,7.40
2019-05-23T02:31:15.869Z,8.03
2019-05-23T02:33:45.975Z,8.97
2019-05-23T02:36:15.530Z,8.53
2019-05-23T02:39:04.877Z,6.97
2019-05-23T02:41:41.129Z,7.63
2019-05-23T02:44:16.445Z,7.13
2019-05-23T02:47:04.915Z,6.80
2019-05-23T02:49:39.387Z,8.83
2019-05-23T02:52:28.662Z,6.47
2019-05-23T02:54:58.288Z,7.40
2019-05-23T02:57:30.133Z,6.63
2019-05-23T03:00:11.051Z,8.13
2019-05-23T03:03:02.445Z,7.40
2019-05-23T03:05:34.924Z,6.80
2019-05-23T03:08:05.494Z,7.40
2019-05-23T03:10:54.736Z,7.43
2019-05-23T03:13:26.493Z,7.57
2019-05-23T03:15:57.497Z,8.63
2019-05-23T03:18:33.249Z,8.63
2019-05-23T03:21:02.339Z,7.67
2019-05-23T03:23:34.288Z,7.30
2019-05-23T03:26:50.948Z,8.90
2019-05-23T03:29:21.301Z,8.53
2019-05-23T03:32:05.728Z,9.53
2019-05-23T03:34:37.580Z,8.43
2019-05-23T03:37:09.870Z,8.87
2019-05-23T03:39:39.856Z,8.43
2019-05-23T03:42:10.720Z,6.87
2019-05-23T03:44:40.213Z,7.73
2019-05-23T03:47:14.306Z,7.97
2019-05-23T03:49:44.265Z,7.97
2019-05-23T03:52:15.065Z,6.90
2019-05-23T03:54:46.932Z,8.87
2019-05-23T03:57:18.293Z,7.40
2019-05-23T03:59:48.784Z,8.07
2019-05-23T04:02:20.882Z,8.30
2019-05-23T04:04:50.661Z,8.43
2019-05-23T04:07:20.279Z,8.47
2019-05-23T04:09:50.257Z,7.03
2019-05-23T04:12:19.713Z,8.23
2019-05-23T04:14:49.404Z,8.60
2019-05-23T04:17:18.893Z,9.47
2019-05-23T04:19:48.681Z,7.00
2019-05-23T04:22:18.133Z,7.93
2019-05-23T04:24:47.714Z,7.77
2019-05-23T04:27:17.206Z,7.90
2019-05-23T04:29:46.815Z,7.70
2019-05-23T04:32:16.569Z,8.03
2019-05-23T04:34:46.213Z,7.93
2019-05-23T04:37:15.797Z,9.70
2019-05-23T04:39:45.437Z,8.50
2019-05-23T04:42:14.893Z,9.70
2019-05-23T04:44:44.905Z,8.33
2019-05-23T04:47:14.545Z,11.93
2019-05-23T04:49:44.113Z,8.67
2019-05-23T04:52:13.621Z,9.53
2019-05-23T04:54:43.897Z,9.03
2019-05-23T04:57:14.534Z,8.87
2019-05-23T04:59:44.106Z,9.27
2019-05-23T05:02:25.460Z,9.33
2019-05-23T05:04:46.516Z,9.50
2019-05-23T05:07:16.068Z,13.20
2019-05-23T05:09:46.645Z,10.37
2019-05-23T05:12:16.610Z,10.53
2019-05-23T05:14:46.288Z,8.47
2019-05-23T05:17:15.875Z,8.10
2019-05-23T05:19:45.860Z,8.23
2019-05-23T05:22:15.303Z,9.43
2019-05-23T05:24:44.771Z,9.37
2019-05-23T05:27:14.448Z,8.43
2019-05-23T05:29:43.923Z,8.17
2019-05-23T05:32:14.974Z,11.13
2019-05-23T05:34:44.624Z,11.37
2019-05-23T05:37:14.112Z,9.30
2019-05-23T05:39:43.981Z,9.57
2019-05-23T05:42:13.588Z,8.50
2019-05-23T05:44:43.041Z,10.20
2019-05-23T05:47:12.718Z,10.53
2019-05-23T05:49:42.667Z,9.23
2019-05-23T05:52:12.713Z,8.73
2019-05-23T05:54:42.207Z,9.67
2019-05-23T05:57:11.790Z,7.97
2019-05-23T05:59:41.249Z,8.73
2019-05-23T06:02:12.803Z,9.60
2019-05-23T06:04:42.494Z,10.70
2019-05-23T06:07:34.385Z,9.73
2019-05-23T06:10:06.732Z,11.57
2019-05-23T06:12:36.541Z,10.43
2019-05-23T06:15:07.328Z,11.23
2019-05-23T06:17:36.906Z,9.83
2019-05-23T06:20:07.189Z,13.00
2019-05-23T06:22:36.972Z,11.10
2019-05-23T06:25:07.083Z,11.60
2019-05-23T06:27:36.648Z,11.50
2019-05-23T06:30:08.555Z,12.90
2019-05-23T06:32:38.472Z,10.40
2019-05-23T06:35:08.154Z,11.47
2019-05-23T06:37:37.729Z,11.73
2019-05-23T06:40:07.976Z,11.17
2019-05-23T06:42:37.430Z,11.90
2019-05-23T06:45:07.494Z,11.60
2019-05-23T06:47:37.257Z,12.50
2019-05-23T06:50:10.423Z,10.90
2019-05-23T06:52:39.892Z,11.60
2019-05-23T06:55:09.584Z,13.13
2019-05-23T06:57:39.149Z,13.80
2019-05-23T07:00:08.712Z,12.87
2019-05-23T07:02:39.507Z,11.20
2019-05-23T07:05:09.260Z,9.07
2019-05-23T07:07:39.186Z,10.90
2019-05-23T07:10:09.321Z,10.27
2019-05-23T07:12:38.917Z,12.30
2019-05-23T07:15:09.071Z,13.03
2019-05-23T07:17:39.153Z,9.37
2019-05-23T07:20:10.138Z,9.20
2019-05-23T07:22:39.628Z,8.67
2019-05-23T07:25:10.912Z,8.17
2019-05-23T07:27:40.599Z,8.40
2019-05-23T07:30:14.388Z,8.80
2019-05-23T07:32:43.863Z,8.20
2019-05-23T07:35:13.951Z,8.43
2019-05-23T07:37:43.403Z,7.47
2019-05-23T07:40:13.307Z,7.13
2019-05-23T07:42:43.123Z,7.17
2019-05-23T07:45:15.200Z,7.20
2019-05-23T07:47:44.844Z,8.53
2019-05-23T07:50:14.731Z,7.00
2019-05-23T07:52:44.714Z,6.07
2019-05-23T07:55:39.205Z,6.90
2019-05-23T07:58:13.548Z,7.30
2019-05-23T08:00:48.249Z,6.90
2019-05-23T08:03:18.348Z,6.53
2019-05-23T08:05:48.263Z,7.77
2019-05-23T08:08:18.452Z,8.67
2019-05-23T08:10:47.904Z,8.67
2019-05-23T08:13:17.407Z,7.00
2019-05-23T08:15:47.968Z,7.37
2019-05-23T08:18:17.653Z,6.20
2019-05-23T08:20:47.209Z,5.90
2019-05-23T08:23:16.975Z,6.73
2019-05-23T08:25:46.531Z,6.10
2019-05-23T08:28:16.017Z,5.70
2019-05-23T08:30:45.491Z,5.77
2019-05-23T08:33:15.139Z,10.67
2019-05-23T08:35:45.057Z,5.53
2019-05-23T08:38:14.798Z,6.33
2019-05-23T08:40:44.548Z,6.10
2019-05-23T08:43:14.563Z,5.87
2019-05-23T08:45:44.495Z,5.47
2019-05-23T08:48:14.213Z,7.70
2019-05-23T08:50:43.720Z,5.33
2019-05-23T08:53:13.383Z,6.77
2019-05-23T08:55:43.264Z,5.27
2019-05-23T08:58:13.574Z,5.97
2019-05-23T09:00:44.603Z,6.00
2019-05-23T09:03:14.996Z,5.13
2019-05-23T09:05:44.677Z,5.30
2019-05-23T09:08:17.045Z,5.23
2019-05-23T09:10:46.359Z,5.77
2019-05-23T09:13:16.142Z,4.97
2019-05-23T09:15:45.773Z,5.97
2019-05-23T09:18:15.673Z,4.23
2019-05-23T09:20:45.809Z,5.00
2019-05-23T09:23:15.592Z,5.20
2019-05-23T09:25:45.053Z,5.80
2019-05-23T09:28:15.028Z,6.57
2019-05-23T09:30:44.489Z,5.30
2019-05-23T09:33:14.087Z,4.87
2019-05-23T09:35:43.551Z,5.73
2019-05-23T09:38:13.043Z,7.33
2019-05-23T09:40:42.600Z,4.73
2019-05-23T09:43:12.173Z,4.80
2019-05-23T09:45:41.678Z,4.70
2019-05-23T09:48:11.216Z,4.97
2019-05-23T09:50:40.702Z,4.73
2019-05-23T09:53:10.167Z,5.33
2019-05-23T09:55:39.657Z,4.87
2019-05-23T09:58:09.171Z,5.17
2019-05-23T10:00:39.737Z,4.30
2019-05-23T10:03:09.599Z,5.03
2019-05-23T10:05:43.366Z,4.60
2019-05-23T10:08:10.902Z,5.93
2019-05-23T10:10:41.391Z,4.73
2019-05-23T10:13:11.157Z,4.50
2019-05-23T10:15:57.986Z,5.30
2019-05-23T10:18:27.732Z,5.93
2019-05-23T10:20:57.233Z,4.10
2019-05-23T10:23:26.825Z,4.17
2019-05-23T10:25:56.274Z,4.90
2019-05-23T10:28:25.745Z,4.73
2019-05-23T10:30:55.228Z,3.93
2019-05-23T10:33:24.679Z,3.50
2019-05-23T10:36:00.451Z,4.23
2019-05-23T10:38:29.131Z,4.20
2019-05-23T10:40:56.469Z,4.43
2019-05-23T10:43:26.259Z,3.93
2019-05-23T10:45:55.738Z,5.37
2019-05-23T10:48:25.794Z,3.80
2019-05-23T10:50:55.587Z,5.07
2019-05-23T10:53:25.350Z,5.23
2019-05-23T10:55:54.912Z,4.90
2019-05-23T10:58:24.797Z,5.13
2019-05-23T11:00:54.586Z,5.10
2019-05-23T11:03:25.442Z,4.67
2019-05-23T11:05:54.898Z,5.43
2019-05-23T11:08:29.438Z,4.43
2019-05-23T11:10:55.592Z,3.30
2019-05-23T11:13:25.181Z,3.67
2019-05-23T11:15:54.730Z,3.63
2019-05-23T11:18:24.421Z,3.20
2019-05-23T11:20:53.964Z,3.50
2019-05-23T11:23:27.904Z,3.60
2019-05-23T11:26:01.036Z,3.57
2019-05-23T11:28:28.911Z,3.60
2019-05-23T11:30:59.489Z,3.63
2019-05-23T11:33:28.970Z,4.07
2019-05-23T11:35:59.388Z,4.30
2019-05-23T11:38:29.187Z,4.30
2019-05-23T11:40:58.650Z,3.83
2019-05-23T11:43:28.109Z,5.40
2019-05-23T11:46:07.378Z,4.50
2019-05-23T11:48:37.005Z,5.43
2019-05-23T11:51:06.473Z,4.60
2019-05-23T11:53:36.057Z,4.03
2019-05-23T11:56:05.589Z,4.03
2019-05-23T11:58:35.137Z,4.93
2019-05-23T12:01:37.651Z,5.30
2019-05-23T12:04:10.484Z,4.27
2019-05-23T12:06:55.491Z,4.77
2019-05-23T12:09:17.058Z,4.37
2019-05-23T12:11:46.582Z,4.57
2019-05-23T12:14:16.079Z,4.80
2019-05-23T12:16:45.519Z,4.50
2019-05-23T12:19:15.300Z,5.53
2019-05-23T12:21:44.762Z,4.87
2019-05-23T12:24:15.026Z,4.63
2019-05-23T12:26:44.612Z,6.20
2019-05-23T12:29:14.480Z,4.57
2019-05-23T12:31:48.290Z,4.97
2019-05-23T12:34:15.300Z,4.07
2019-05-23T12:36:44.841Z,4.80
2019-05-23T12:39:15.209Z,5.07
2019-05-23T12:41:44.737Z,5.20
2019-05-23T12:44:17.540Z,4.93
2019-05-23T12:46:45.955Z,4.17
2019-05-23T12:49:26.581Z,4.57
2019-05-23T12:51:56.713Z,4.40
2019-05-23T12:54:26.802Z,4.00
2019-05-23T12:56:56.981Z,4.07
2019-05-23T12:59:27.329Z,3.93
2019-05-23T13:01:58.578Z,3.73
2019-05-23T13:04:28.083Z,3.20
2019-05-23T13:06:57.742Z,3.87
2019-05-23T13:09:27.315Z,3.50
2019-05-23T13:11:56.805Z,3.60
2019-05-23T13:14:26.628Z,4.20
2019-05-23T13:17:00.438Z,3.90
2019-05-23T13:19:27.414Z,4.23
2019-05-23T13:21:57.176Z,3.10
2019-05-23T13:24:26.740Z,3.37
2019-05-23T13:26:56.555Z,3.97
2019-05-23T13:29:26.214Z,2.77
2019-05-23T13:32:14.769Z,4.23
2019-05-23T13:34:44.503Z,3.30
2019-05-23T13:40:31.935Z,4.00
2019-05-23T13:43:20.442Z,4.47
2019-05-23T13:46:09.060Z,3.83
2019-05-23T13:48:38.818Z,4.00
2019-05-23T13:51:27.330Z,3.00
2019-05-23T13:54:08.421Z,3.57
2019-05-23T13:56:37.971Z,4.30
2019-05-23T13:59:26.474Z,3.93
2019-05-23T14:02:15.035Z,4.47
2019-05-23T14:04:44.702Z,4.23
2019-05-23T14:07:33.226Z,4.10
2019-05-23T14:13:31.341Z,4.40
2019-05-23T14:16:19.891Z,4.00
2019-05-23T14:19:08.638Z,3.73
2019-05-23T14:21:57.561Z,3.60
2019-05-23T14:24:46.109Z,3.53
2019-05-23T14:27:34.562Z,3.80
2019-05-23T14:30:12.465Z,3.07
2019-05-23T14:32:59.191Z,4.40
2019-05-23T14:35:40.503Z,3.93
2019-05-23T14:38:29.176Z,4.67
2019-05-23T14:41:02.030Z,3.70
2019-05-23T14:47:04.901Z,4.03
2019-05-23T14:50:12.317Z,4.07
2019-05-23T14:56:02.492Z,3.40
2019-05-23T14:58:43.704Z,4.07
2019-05-23T15:01:13.800Z,3.43
2019-05-23T15:04:03.036Z,3.53
2019-05-23T15:06:51.598Z,3.20
2019-05-23T15:09:40.095Z,3.43
2019-05-23T15:12:09.898Z,3.60
2019-05-23T15:14:58.543Z,3.57
2019-05-23T15:17:47.041Z,4.07
2019-05-23T15:20:35.521Z,3.23
2019-05-23T15:23:24.181Z,3.37
2019-05-23T15:25:53.655Z,4.53
2019-05-23T15:28:42.269Z,3.50
2019-05-23T15:34:26.160Z,3.40
2019-05-23T15:36:55.704Z,3.07
2019-05-23T15:39:44.240Z,4.33
2019-05-23T15:48:27.503Z,3.90
2019-05-23T15:50:57.013Z,3.60
2019-05-23T15:54:00.056Z,3.40
2019-05-23T16:00:19.883Z,4.03
2019-05-23T16:05:54.208Z,3.43
2019-05-23T16:08:42.833Z,3.53
2019-05-23T16:11:31.373Z,3.40
2019-05-23T16:14:00.962Z,3.40
2019-05-23T16:16:49.944Z,3.27
2019-05-23T16:19:38.459Z,3.90
2019-05-23T16:22:27.093Z,3.13
2019-05-23T16:24:56.711Z,3.53
2019-05-23T16:27:45.411Z,3.47
2019-05-23T16:30:33.921Z,3.40
2019-05-23T16:33:03.535Z,3.47
2019-05-23T16:35:44.583Z,3.40
2019-05-23T16:38:25.976Z,3.17
2019-05-23T16:40:55.478Z,3.80
2019-05-23T16:43:44.122Z,3.20
2019-05-23T16:46:32.636Z,3.40
2019-05-23T16:49:02.242Z,3.30
2019-05-23T16:51:31.969Z,3.00
2019-05-23T16:57:10.389Z,2.80
2019-05-23T16:59:59.711Z,3.70
2019-05-23T17:02:48.404Z,3.30
2019-05-23T17:05:47.671Z,4.80
2019-05-23T17:08:55.101Z,3.03
2019-05-23T17:12:02.614Z,3.53
2019-05-23T17:15:10.029Z,3.13
2019-05-23T17:18:17.507Z,2.40
2019-05-23T17:21:05.938Z,3.30
2019-05-23T17:23:54.337Z,3.87
2019-05-23T17:29:45.825Z,3.13
2019-05-23T17:32:35.315Z,2.83
2019-05-23T17:35:23.848Z,3.37
2019-05-23T17:38:12.479Z,3.30
2019-05-23T17:41:01.288Z,2.93
2019-05-23T17:43:30.915Z,3.53
2019-05-23T17:46:21.230Z,3.67
2019-05-23T17:49:09.786Z,26.17
2019-05-23T17:51:58.390Z,3.73
2019-05-23T17:57:18.007Z,3.53
2019-05-23T18:05:26.492Z,3.20
2019-05-23T18:07:56.383Z,3.43
2019-05-23T18:10:43.234Z,3.67
2019-05-23T18:13:16.380Z,3.10
2019-05-23T18:15:45.885Z,3.40
2019-05-23T18:18:34.791Z,3.13
2019-05-23T18:21:24.011Z,3.63
2019-05-23T18:27:02.554Z,3.20
2019-05-23T18:29:32.335Z,3.00
2019-05-23T18:32:23.023Z,3.50
2019-05-23T18:35:31.898Z,3.67
2019-05-23T18:38:20.944Z,3.47
2019-05-23T18:41:29.798Z,3.10
2019-05-23T18:44:18.687Z,3.33
2019-05-23T18:58:40.712Z,4.47
2019-05-23T19:01:29.182Z,3.53
2019-05-23T19:04:17.720Z,4.40
2019-05-23T19:10:15.824Z,4.97
2019-05-23T19:13:04.340Z,3.50
2019-05-23T19:15:34.166Z,3.17
2019-05-23T19:18:23.103Z,3.80
2019-05-23T19:24:08.156Z,3.07
2019-05-23T19:29:33.531Z,2.90
2019-05-23T19:32:04.427Z,4.07
2019-05-23T19:34:34.408Z,3.20
2019-05-23T19:37:04.490Z,3.63
2019-05-23T19:39:35.118Z,12.77
2019-05-23T19:42:05.084Z,16.13
2019-05-23T19:44:34.580Z,7.43
2019-05-23T19:47:04.145Z,4.87
2019-05-23T19:49:34.249Z,3.63
2019-05-23T19:52:04.516Z,3.87
2019-05-23T19:54:34.124Z,6.20
2019-05-23T19:57:03.984Z,4.93
2019-05-23T19:59:33.447Z,4.50
2019-05-23T20:02:33.832Z,5.67
2019-05-23T20:05:11.111Z,4.40
2019-05-23T20:07:40.628Z,6.67
2019-05-23T20:10:10.901Z,11.10
2019-05-23T20:12:40.785Z,8.50
2019-05-23T20:15:10.343Z,7.10
2019-05-23T20:17:39.843Z,5.27
2019-05-23T20:20:09.419Z,6.83
2019-05-23T20:22:38.867Z,4.90
2019-05-23T20:25:09.092Z,4.97
2019-05-23T20:27:38.540Z,4.73
2019-05-23T20:30:10.950Z,4.67
2019-05-23T20:32:40.416Z,19.10
2019-05-23T20:35:09.876Z,10.57
2019-05-23T20:37:40.275Z,7.10
2019-05-23T20:40:09.942Z,4.87
2019-05-23T20:42:39.626Z,7.40
2019-05-23T20:45:09.093Z,8.17
2019-05-23T20:47:38.768Z,6.40
2019-05-23T20:50:08.244Z,6.17
2019-05-23T20:52:37.703Z,5.67
2019-05-23T20:55:07.571Z,5.40
2019-05-23T20:57:37.026Z,5.70
2019-05-23T21:00:09.280Z,8.60
2019-05-23T21:02:38.753Z,9.83
2019-05-23T21:05:08.400Z,14.00
2019-05-23T21:07:37.878Z,14.93
2019-05-23T21:10:07.556Z,14.83
2019-05-23T21:12:37.055Z,17.73
2019-05-23T21:15:07.056Z,12.33
2019-05-23T21:17:36.544Z,9.40
2019-05-23T21:20:06.697Z,8.27
2019-05-23T21:22:36.181Z,7.57
2019-05-23T21:25:06.107Z,7.77
2019-05-23T21:27:35.639Z,7.00
2019-05-23T21:30:05.437Z,7.20
2019-05-23T21:32:34.860Z,7.30
2019-05-23T21:35:04.353Z,8.83
2019-05-23T21:37:34.664Z,8.20
2019-05-23T21:40:04.335Z,8.43
2019-05-23T21:42:47.413Z,13.47
2019-05-23T21:45:05.363Z,13.13
2019-05-23T21:47:34.820Z,21.70
2019-05-23T21:50:04.655Z,9.83
2019-05-23T21:52:34.185Z,6.90
2019-05-23T21:55:03.754Z,5.67
2019-05-23T21:57:33.207Z,5.90
2019-05-23T22:00:02.857Z,7.47
2019-05-23T22:02:34.638Z,18.50
2019-05-23T22:05:13.750Z,60.67
2019-05-23T22:07:43.427Z,46.27
2019-05-23T22:10:13.204Z,12.83
2019-05-23T22:12:43.013Z,9.50
2019-05-23T22:15:15.737Z,10.83
2019-05-23T22:17:45.325Z,10.97
2019-05-23T22:20:14.784Z,19.77
2019-05-23T22:22:44.500Z,13.63
2019-05-23T22:25:17.775Z,13.80
2019-05-23T22:27:47.344Z,14.70
2019-05-23T22:30:16.857Z,12.77
2019-05-23T22:32:46.538Z,22.07
2019-05-23T22:35:19.219Z,14.00
2019-05-23T22:37:48.693Z,12.20
2019-05-23T22:40:18.442Z,8.37
2019-05-23T22:42:47.960Z,11.40
2019-05-23T22:45:19.700Z,10.07
2019-05-23T22:47:49.156Z,8.80
2019-05-23T22:50:18.705Z,9.07
2019-05-23T22:52:48.237Z,8.97
2019-05-23T22:55:17.731Z,9.27
2019-05-23T22:57:47.182Z,7.83
2019-05-23T23:00:20.491Z,8.30
2019-05-23T23:02:49.980Z,9.20
2019-05-23T23:05:19.467Z,12.70
2019-05-23T23:07:48.946Z,11.53
2019-05-23T23:10:18.608Z,11.87
2019-05-23T23:12:48.491Z,7.60
2019-05-23T23:15:18.102Z,7.93
2019-05-23T23:17:47.563Z,8.30
2019-05-23T23:20:17.053Z,8.83
2019-05-23T23:22:46.496Z,8.23
2019-05-23T23:25:16.012Z,8.47
2019-05-23T23:27:45.476Z,7.20
2019-05-23T23:30:16.819Z,7.90
2019-05-23T23:32:46.316Z,8.57
2019-05-23T23:35:15.785Z,7.40
2019-05-23T23:37:45.267Z,8.83
2019-05-23T23:40:14.918Z,8.67
2019-05-23T23:42:44.453Z,7.27
2019-05-23T23:45:31.415Z,7.23
2019-05-23T23:48:18.492Z,6.60
2019-05-23T23:51:05.747Z,7.57
2019-05-23T23:53:52.907Z,6.97
2019-05-23T23:56:39.828Z,7.37
2019-05-23T23:59:08.596Z,8.67
